createdAt,value
2023-01-26T00:02:13.747Z,17.55
2023-01-26T00:04:42.061Z,16.00
2023-01-26T00:07:10.306Z,25.15
2023-01-26T00:09:38.492Z,24.02
2023-01-26T00:12:07.133Z,14.93
2023-01-26T00:14:49.921Z,20.60
2023-01-26T00:17:27.020Z,15.43
2023-01-26T00:19:56.537Z,14.02
2023-01-26T00:22:25.680Z,16.60
2023-01-26T00:24:54.020Z,16.85
2023-01-26T00:27:22.247Z,15.15
2023-01-26T00:29:50.476Z,13.43
2023-01-26T00:32:20.398Z,23.38
2023-01-26T00:34:48.608Z,19.20
2023-01-26T00:37:33.463Z,19.58
2023-01-26T00:40:09.706Z,16.35
2023-01-26T00:42:39.885Z,19.30
2023-01-26T00:45:09.308Z,16.38
2023-01-26T00:47:38.913Z,17.38
2023-01-26T00:50:07.746Z,19.70
2023-01-26T00:52:36.036Z,19.70
2023-01-26T00:55:04.664Z,17.23
2023-01-26T00:57:32.895Z,17.70
2023-01-26T01:00:01.161Z,19.65
2023-01-26T01:02:29.346Z,14.45
2023-01-26T01:04:58.945Z,18.95
2023-01-26T01:07:27.211Z,15.88
2023-01-26T01:09:55.480Z,21.73
2023-01-26T01:12:23.776Z,18.42
2023-01-26T01:14:51.991Z,13.32
2023-01-26T01:17:20.287Z,15.85
2023-01-26T01:19:48.466Z,25.20
2023-01-26T01:22:18.338Z,20.13
2023-01-26T01:24:46.544Z,16.38
2023-01-26T01:27:14.852Z,13.63
2023-01-26T01:29:43.046Z,11.82
2023-01-26T01:32:11.280Z,11.90
2023-01-26T01:34:39.497Z,10.73
2023-01-26T01:37:07.750Z,10.65
2023-01-26T01:39:37.307Z,10.82
2023-01-26T01:42:06.068Z,11.70
2023-01-26T01:44:37.752Z,12.00
2023-01-26T01:47:12.698Z,11.48
2023-01-26T01:49:47.612Z,10.88
2023-01-26T01:52:21.367Z,10.55
2023-01-26T01:54:55.358Z,11.25
2023-01-26T01:57:28.561Z,10.70
2023-01-26T02:00:01.033Z,12.40
2023-01-26T02:02:29.950Z,10.88
2023-01-26T02:05:03.381Z,11.10
2023-01-26T02:07:33.581Z,11.63
2023-01-26T02:10:22.022Z,12.65
2023-01-26T02:12:55.564Z,10.13
2023-01-26T02:15:23.845Z,10.70
2023-01-26T02:17:53.434Z,9.38
2023-01-26T02:20:33.441Z,9.65
2023-01-26T02:23:07.557Z,11.23
2023-01-26T02:25:45.842Z,7.60
2023-01-26T02:28:15.443Z,8.88
2023-01-26T02:30:43.841Z,8.45
2023-01-26T02:33:16.279Z,9.48
2023-01-26T02:35:44.484Z,10.63
2023-01-26T02:38:12.709Z,9.38
2023-01-26T02:40:47.556Z,11.43
2023-01-26T02:43:16.309Z,9.48
2023-01-26T02:45:45.318Z,9.32
2023-01-26T02:48:13.524Z,10.90
2023-01-26T02:50:40.715Z,9.25
2023-01-26T02:53:08.873Z,8.45
2023-01-26T02:55:36.024Z,8.27
2023-01-26T02:58:06.148Z,7.97
2023-01-26T03:00:38.227Z,8.75
2023-01-26T03:03:13.497Z,9.30
2023-01-26T03:05:41.972Z,10.63
2023-01-26T03:08:10.244Z,10.57
2023-01-26T03:10:38.664Z,10.38
2023-01-26T03:13:06.966Z,9.90
2023-01-26T03:15:43.001Z,10.68
2023-01-26T03:18:30.353Z,10.68
2023-01-26T03:21:18.013Z,11.27
2023-01-26T03:24:03.783Z,9.75
2023-01-26T03:26:49.212Z,14.45
2023-01-26T03:29:17.657Z,13.20
2023-01-26T03:31:47.304Z,11.27
2023-01-26T03:34:15.477Z,13.18
2023-01-26T03:36:43.695Z,15.50
2023-01-26T03:39:31.975Z,12.60
2023-01-26T03:42:17.703Z,15.25
2023-01-26T03:45:03.823Z,14.57
2023-01-26T03:47:52.348Z,16.30
2023-01-26T03:50:38.649Z,15.82
2023-01-26T03:53:32.598Z,15.73
2023-01-26T03:56:18.413Z,18.05
2023-01-26T03:58:47.020Z,16.17
2023-01-26T04:01:19.954Z,14.68
2023-01-26T04:04:08.402Z,12.13
2023-01-26T04:06:55.191Z,16.58
2023-01-26T04:09:23.984Z,16.88
2023-01-26T04:11:52.217Z,14.00
2023-01-26T04:14:50.076Z,14.35
2023-01-26T04:17:36.802Z,13.50
2023-01-26T04:20:25.221Z,15.13
2023-01-26T04:22:53.449Z,16.85
2023-01-26T04:25:23.182Z,16.48
2023-01-26T04:27:51.501Z,14.85
2023-01-26T04:30:20.321Z,14.35
2023-01-26T04:32:48.554Z,19.48
2023-01-26T04:35:18.346Z,19.83
2023-01-26T04:37:46.620Z,20.92
2023-01-26T04:40:15.209Z,19.35
2023-01-26T04:42:43.446Z,24.40
2023-01-26T04:45:12.478Z,20.88
2023-01-26T04:47:40.729Z,23.48
2023-01-26T04:50:10.857Z,20.55
2023-01-26T04:52:40.596Z,25.38
2023-01-26T04:55:09.486Z,19.95
2023-01-26T04:57:37.680Z,18.98
2023-01-26T05:00:06.982Z,23.58
2023-01-26T05:02:35.218Z,21.80
2023-01-26T05:05:03.543Z,21.27
2023-01-26T05:07:31.745Z,18.00
2023-01-26T05:10:01.384Z,22.08
2023-01-26T05:12:35.208Z,19.65
2023-01-26T05:15:03.497Z,18.17
2023-01-26T05:17:31.773Z,19.48
2023-01-26T05:19:59.985Z,19.08
2023-01-26T05:22:28.220Z,18.30
2023-01-26T05:24:56.437Z,17.40
2023-01-26T05:27:26.098Z,17.92
2023-01-26T05:29:55.402Z,19.65
2023-01-26T05:32:23.567Z,18.58
2023-01-26T05:34:51.891Z,21.35
2023-01-26T05:37:20.291Z,20.05
2023-01-26T05:39:48.624Z,18.08
2023-01-26T05:42:16.884Z,20.85
2023-01-26T05:44:46.475Z,19.85
2023-01-26T05:47:14.682Z,17.65
2023-01-26T05:49:43.478Z,16.55
2023-01-26T05:52:12.914Z,17.05
2023-01-26T05:54:43.834Z,16.73
2023-01-26T05:57:12.337Z,16.85
2023-01-26T05:59:40.803Z,14.68
2023-01-26T06:02:14.516Z,19.98
2023-01-26T06:04:42.794Z,17.60
2023-01-26T06:07:13.622Z,15.75
2023-01-26T06:09:42.259Z,16.88
2023-01-26T06:12:16.726Z,17.40
2023-01-26T06:14:47.231Z,16.27
2023-01-26T06:17:18.807Z,16.23
2023-01-26T06:19:47.316Z,16.38
2023-01-26T06:22:16.324Z,15.18
2023-01-26T06:24:44.548Z,24.45
2023-01-26T06:27:15.061Z,20.67
2023-01-26T06:29:43.288Z,17.02
2023-01-26T06:32:11.784Z,20.30
2023-01-26T06:34:41.931Z,18.23
2023-01-26T06:37:10.508Z,15.27
2023-01-26T06:39:38.737Z,15.85
2023-01-26T06:42:08.506Z,15.68
2023-01-26T06:44:36.730Z,13.07
2023-01-26T06:47:06.188Z,14.73
2023-01-26T06:49:34.390Z,15.55
2023-01-26T06:52:20.292Z,18.50
2023-01-26T06:54:50.501Z,14.80
2023-01-26T06:57:18.727Z,18.27
2023-01-26T06:59:46.916Z,16.48
2023-01-26T07:02:19.420Z,19.80
2023-01-26T07:04:48.193Z,35.65
2023-01-26T07:07:17.944Z,36.55
2023-01-26T07:09:46.184Z,34.10
2023-01-26T07:12:14.418Z,18.85
2023-01-26T07:14:42.740Z,16.75
2023-01-26T07:17:10.969Z,15.90
2023-01-26T07:19:39.193Z,17.38
2023-01-26T07:22:07.467Z,16.95
2023-01-26T07:24:37.205Z,16.40
2023-01-26T07:27:05.427Z,17.73
2023-01-26T07:29:33.702Z,18.67
2023-01-26T07:32:02.011Z,19.05
2023-01-26T07:34:30.230Z,17.67
2023-01-26T07:36:58.455Z,19.38
2023-01-26T07:39:26.893Z,19.45
2023-01-26T07:41:56.577Z,19.30
2023-01-26T07:44:24.839Z,18.60
2023-01-26T07:46:54.673Z,16.80
2023-01-26T07:49:22.943Z,16.70
2023-01-26T07:51:52.538Z,16.65
2023-01-26T07:54:25.492Z,15.07
2023-01-26T07:56:55.057Z,19.25
2023-01-26T07:59:25.363Z,18.60
2023-01-26T08:01:55.509Z,17.90
2023-01-26T08:04:24.215Z,16.52
2023-01-26T08:07:05.985Z,16.13
2023-01-26T08:09:34.361Z,23.10
2023-01-26T08:12:02.551Z,17.30
2023-01-26T08:14:45.832Z,16.77
2023-01-26T08:17:17.460Z,18.23
2023-01-26T08:19:45.864Z,18.55
2023-01-26T08:22:14.121Z,21.58
2023-01-26T08:24:42.353Z,21.13
2023-01-26T08:27:10.629Z,16.88
2023-01-26T08:29:40.290Z,21.27
2023-01-26T08:32:09.307Z,20.52
2023-01-26T08:34:37.577Z,22.10
2023-01-26T08:37:05.836Z,19.38
2023-01-26T08:39:34.083Z,21.00
2023-01-26T08:42:02.352Z,21.23
2023-01-26T08:44:30.588Z,21.58
2023-01-26T08:47:00.367Z,25.65
2023-01-26T08:49:28.635Z,23.85
2023-01-26T08:51:57.954Z,25.52
2023-01-26T08:54:26.176Z,21.75
2023-01-26T08:56:55.377Z,17.83
2023-01-26T08:59:23.626Z,20.85
2023-01-26T09:01:51.953Z,20.55
2023-01-26T09:04:21.623Z,17.70
2023-01-26T09:06:49.887Z,21.88
2023-01-26T09:09:18.082Z,22.67
2023-01-26T09:11:46.373Z,21.27
2023-01-26T09:14:14.531Z,23.88
2023-01-26T09:16:42.840Z,21.25
2023-01-26T09:19:11.086Z,22.40
2023-01-26T09:21:40.658Z,29.23
2023-01-26T09:24:09.441Z,20.00
2023-01-26T09:26:37.702Z,21.95
2023-01-26T09:29:09.261Z,21.52
2023-01-26T09:31:41.146Z,23.17
2023-01-26T09:34:09.567Z,27.58
2023-01-26T09:36:41.262Z,25.33
2023-01-26T09:39:13.703Z,22.08
2023-01-26T09:42:06.105Z,23.20
2023-01-26T09:44:42.563Z,25.65
2023-01-26T09:47:19.608Z,20.88
2023-01-26T09:49:52.175Z,25.83
2023-01-26T09:52:28.594Z,30.05
2023-01-26T09:55:00.784Z,24.27
2023-01-26T09:57:34.387Z,28.47
2023-01-26T10:00:07.434Z,24.42
2023-01-26T10:02:54.686Z,27.52
2023-01-26T10:05:33.308Z,23.88
2023-01-26T10:08:01.544Z,24.23
2023-01-26T10:10:37.103Z,24.10
2023-01-26T10:13:06.119Z,24.63
2023-01-26T10:15:39.146Z,23.95
2023-01-26T10:20:46.432Z,25.55
2023-01-26T10:23:30.700Z,26.00
2023-01-26T10:26:13.345Z,24.33
2023-01-26T10:28:46.840Z,25.95
2023-01-26T10:31:18.486Z,25.05
2023-01-26T10:33:52.447Z,22.90
2023-01-26T10:36:21.129Z,22.23
2023-01-26T10:38:49.884Z,26.70
2023-01-26T10:41:30.298Z,28.58
2023-01-26T10:43:59.981Z,25.48
2023-01-26T10:46:34.119Z,27.88
2023-01-26T10:49:04.278Z,31.92
2023-01-26T10:51:34.051Z,24.48
2023-01-26T10:54:23.222Z,28.73
2023-01-26T10:56:55.083Z,29.90
2023-01-26T10:59:35.562Z,30.35
2023-01-26T11:02:21.302Z,28.77
2023-01-26T11:05:05.369Z,30.10
2023-01-26T11:07:36.502Z,31.75
2023-01-26T11:10:20.953Z,32.47
2023-01-26T11:12:50.982Z,30.15
2023-01-26T11:15:21.063Z,29.73
2023-01-26T11:17:57.922Z,31.80
2023-01-26T11:20:57.977Z,27.77
2023-01-26T11:23:47.319Z,29.88
2023-01-26T11:26:53.011Z,30.30
2023-01-26T11:29:41.201Z,30.05
2023-01-26T11:32:18.078Z,33.75
2023-01-26T11:34:59.463Z,28.48
2023-01-26T11:37:56.857Z,32.65
2023-01-26T11:40:39.678Z,30.30
2023-01-26T11:43:35.362Z,29.60
2023-01-26T11:46:21.181Z,30.38
2023-01-26T11:49:01.318Z,34.17
2023-01-26T11:51:39.115Z,33.80
2023-01-26T11:54:30.449Z,33.15
2023-01-26T11:57:04.731Z,28.23
2023-01-26T11:59:37.728Z,34.03
2023-01-26T12:02:23.847Z,34.83
2023-01-26T12:04:55.825Z,34.20
2023-01-26T12:07:30.264Z,29.75
2023-01-26T12:10:01.459Z,36.15
2023-01-26T12:12:38.643Z,33.47
2023-01-26T12:15:14.411Z,32.72
2023-01-26T12:17:54.995Z,29.42
2023-01-26T12:20:35.962Z,34.55
2023-01-26T12:23:07.696Z,34.25
2023-01-26T12:25:37.857Z,34.28
2023-01-26T12:28:13.940Z,30.45
2023-01-26T12:30:55.118Z,30.35
2023-01-26T12:33:25.315Z,31.48
2023-01-26T12:36:21.424Z,29.45
2023-01-26T12:39:08.167Z,30.60
2023-01-26T12:41:47.475Z,31.17
2023-01-26T12:44:29.392Z,28.23
2023-01-26T12:47:06.699Z,29.13
2023-01-26T12:49:42.182Z,33.72
2023-01-26T12:52:16.775Z,34.70
2023-01-26T12:54:50.451Z,31.52
2023-01-26T12:57:23.101Z,31.02
2023-01-26T12:59:54.710Z,29.40
2023-01-26T13:02:30.877Z,31.33
2023-01-26T13:05:03.022Z,28.65
2023-01-26T13:07:35.223Z,31.90
2023-01-26T13:11:52.139Z,34.55
2023-01-26T13:14:31.384Z,34.42
2023-01-26T13:17:27.401Z,31.23
2023-01-26T13:19:59.787Z,27.38
2023-01-26T13:22:42.326Z,28.52
2023-01-26T13:25:19.652Z,29.00
2023-01-26T13:27:56.713Z,25.77
2023-01-26T13:30:46.206Z,27.33
2023-01-26T13:33:20.012Z,28.95
2023-01-26T13:35:49.481Z,37.33
2023-01-26T13:38:28.865Z,34.75
2023-01-26T13:40:59.033Z,33.53
2023-01-26T13:43:36.075Z,35.63
2023-01-26T13:46:15.505Z,29.80
2023-01-26T13:48:46.658Z,28.33
2023-01-26T13:51:18.862Z,34.47
2023-01-26T13:53:59.855Z,31.60
2023-01-26T13:56:31.752Z,30.73
2023-01-26T13:59:08.422Z,28.58
2023-01-26T14:01:43.401Z,28.67
2023-01-26T14:04:16.279Z,29.48
2023-01-26T14:06:48.967Z,25.08
2023-01-26T14:09:27.179Z,32.85
2023-01-26T14:12:33.417Z,28.20
2023-01-26T14:15:09.054Z,29.90
2023-01-26T14:17:50.413Z,28.98
2023-01-26T14:20:31.949Z,28.55
2023-01-26T14:23:21.307Z,32.83
2023-01-26T14:25:59.542Z,34.97
2023-01-26T14:28:32.310Z,28.00
2023-01-26T14:31:08.117Z,31.90
2023-01-26T14:33:59.234Z,34.03
2023-01-26T14:36:33.201Z,32.25
2023-01-26T14:39:02.132Z,34.08
2023-01-26T14:41:33.768Z,27.67
2023-01-26T14:44:08.023Z,34.05
2023-01-26T14:46:47.625Z,28.63
2023-01-26T14:49:51.202Z,33.00
2023-01-26T14:52:26.110Z,33.30
2023-01-26T14:54:55.544Z,28.70
2023-01-26T14:57:29.461Z,31.73
2023-01-26T15:00:00.633Z,31.05
2023-01-26T15:02:37.500Z,32.33
2023-01-26T15:05:12.987Z,32.40
2023-01-26T15:07:44.996Z,30.52
2023-01-26T15:10:36.462Z,33.92
2023-01-26T15:13:11.455Z,34.42
2023-01-26T15:15:41.340Z,29.95
2023-01-26T15:18:20.501Z,34.60
2023-01-26T15:21:00.594Z,33.88
2023-01-26T15:23:31.693Z,37.70
2023-01-26T15:26:07.624Z,29.25
2023-01-26T15:28:38.669Z,32.03
2023-01-26T15:31:20.733Z,33.42
2023-01-26T15:34:01.560Z,34.38
2023-01-26T15:36:48.054Z,30.45
2023-01-26T15:39:26.679Z,32.83
2023-01-26T15:42:13.973Z,34.80
2023-01-26T15:44:43.683Z,35.70
2023-01-26T15:47:13.910Z,30.83
2023-01-26T15:49:43.086Z,35.28
2023-01-26T15:55:25.507Z,30.00
2023-01-26T15:57:55.432Z,38.00
2023-01-26T16:00:25.440Z,31.58
2023-01-26T16:02:53.953Z,29.17
2023-01-26T16:05:23.776Z,36.15
2023-01-26T16:07:52.734Z,35.97
2023-01-26T16:10:21.107Z,30.40
2023-01-26T16:12:50.857Z,34.53
2023-01-26T16:15:40.081Z,36.03
2023-01-26T16:18:15.231Z,32.90
2023-01-26T16:20:45.461Z,40.17
2023-01-26T16:23:19.864Z,38.00
2023-01-26T16:25:48.599Z,34.92
2023-01-26T16:28:17.412Z,30.80
2023-01-26T16:30:48.593Z,36.08
2023-01-26T16:33:20.983Z,29.10
2023-01-26T16:35:49.271Z,33.45
2023-01-26T16:38:20.192Z,33.70
2023-01-26T16:41:55.526Z,33.47
2023-01-26T16:47:25.195Z,37.95
2023-01-26T16:49:54.285Z,32.85
2023-01-26T16:52:22.813Z,33.63
2023-01-26T16:54:50.998Z,45.35
2023-01-26T16:57:21.371Z,33.38
2023-01-26T16:59:49.898Z,36.70
2023-01-26T17:02:25.948Z,36.47
2023-01-26T17:04:54.382Z,38.33
2023-01-26T17:07:22.537Z,31.85
2023-01-26T17:09:53.543Z,35.55
2023-01-26T17:12:21.799Z,34.35
2023-01-26T17:14:50.163Z,33.55
2023-01-26T17:17:18.436Z,35.80
2023-01-26T17:19:48.091Z,35.97
2023-01-26T17:22:16.481Z,32.88
2023-01-26T17:24:44.706Z,37.17
2023-01-26T17:27:13.125Z,40.97
2023-01-26T17:29:42.338Z,35.90
2023-01-26T17:32:10.565Z,32.92
2023-01-26T17:34:38.817Z,33.42
2023-01-26T17:37:08.408Z,41.90
2023-01-26T17:39:36.795Z,48.10
2023-01-26T17:42:05.222Z,45.10
2023-01-26T17:44:33.413Z,40.03
2023-01-26T17:47:01.621Z,42.95
2023-01-26T17:49:29.947Z,45.10
2023-01-26T17:51:58.211Z,38.50
2023-01-26T17:54:27.878Z,34.90
2023-01-26T17:56:56.094Z,37.38
2023-01-26T17:59:34.925Z,46.92
2023-01-26T18:02:03.274Z,39.33
2023-01-26T18:04:32.563Z,36.15
2023-01-26T18:07:02.206Z,37.38
2023-01-26T18:09:32.051Z,41.47
2023-01-26T18:12:00.304Z,35.22
2023-01-26T18:14:29.257Z,43.17
2023-01-26T18:16:57.488Z,42.42
2023-01-26T18:19:31.777Z,74.05
2023-01-26T18:21:59.988Z,70.03
2023-01-26T18:24:29.343Z,51.00
2023-01-26T18:26:58.936Z,40.80
2023-01-26T18:29:27.213Z,34.70
2023-01-26T18:31:55.480Z,37.78
2023-01-26T18:34:23.873Z,37.00
2023-01-26T18:36:52.097Z,32.25
2023-01-26T18:39:20.281Z,36.60
2023-01-26T18:41:48.533Z,34.40
2023-01-26T18:44:18.507Z,33.72
2023-01-26T18:46:46.748Z,33.38
2023-01-26T18:49:28.821Z,33.42
2023-01-26T18:51:57.066Z,34.65
2023-01-26T18:54:29.338Z,33.90
2023-01-26T18:56:58.079Z,32.00
2023-01-26T18:59:27.978Z,33.80
2023-01-26T19:01:56.525Z,36.28
2023-01-26T19:04:24.826Z,31.55
2023-01-26T19:06:53.166Z,36.70
2023-01-26T19:09:21.488Z,38.05
2023-01-26T19:11:53.656Z,37.35
2023-01-26T19:14:22.652Z,37.00
2023-01-26T19:16:52.364Z,46.13
2023-01-26T19:19:20.744Z,42.67
2023-01-26T19:21:49.062Z,33.40
2023-01-26T19:24:17.340Z,35.60
2023-01-26T19:26:45.606Z,40.10
2023-01-26T19:29:13.821Z,32.35
2023-01-26T19:31:43.349Z,32.30
2023-01-26T19:34:16.917Z,36.33
2023-01-26T19:36:46.805Z,28.67
2023-01-26T19:39:15.216Z,30.83
2023-01-26T19:41:44.307Z,36.25
2023-01-26T19:44:12.591Z,28.23
2023-01-26T19:46:40.827Z,31.05
2023-01-26T19:49:11.768Z,37.40
2023-01-26T19:51:42.115Z,34.53
2023-01-26T19:54:10.712Z,33.47
2023-01-26T19:56:39.382Z,34.33
2023-01-26T19:59:10.262Z,27.67
2023-01-26T20:01:38.920Z,38.90
2023-01-26T20:04:30.964Z,93.18
2023-01-26T20:11:25.035Z,35.10
2023-01-26T20:18:18.737Z,35.85
2023-01-26T20:21:31.935Z,34.65
2023-01-26T20:28:15.867Z,29.70
2023-01-26T20:30:46.245Z,31.95
2023-01-26T20:33:14.693Z,30.20
2023-01-26T20:35:43.853Z,32.28
2023-01-26T20:38:14.116Z,29.45
2023-01-26T20:40:49.526Z,30.60
2023-01-26T20:43:20.662Z,28.42
2023-01-26T20:45:55.283Z,36.05
2023-01-26T20:48:39.927Z,35.25
2023-01-26T20:58:06.848Z,35.92
2023-01-26T21:00:43.516Z,37.38
2023-01-26T21:03:20.324Z,33.88
2023-01-26T21:05:57.277Z,35.95
2023-01-26T21:08:28.190Z,35.35
2023-01-26T21:10:56.482Z,29.35
2023-01-26T21:13:40.046Z,31.92
2023-01-26T21:16:10.698Z,32.17
2023-01-26T21:18:38.921Z,32.72
2023-01-26T21:21:09.337Z,35.83
2023-01-26T21:23:37.532Z,33.97
2023-01-26T21:26:07.603Z,29.05
2023-01-26T21:28:36.118Z,30.58
2023-01-26T21:31:06.660Z,28.65
2023-01-26T21:33:38.986Z,29.40
2023-01-26T21:36:08.722Z,30.63
2023-01-26T21:38:38.630Z,34.83
2023-01-26T21:41:30.612Z,36.47
2023-01-26T21:43:59.492Z,33.55
2023-01-26T21:46:29.004Z,30.02
2023-01-26T21:48:58.766Z,29.45
2023-01-26T21:51:48.065Z,36.58
2023-01-26T21:54:16.691Z,33.17
2023-01-26T21:56:53.211Z,35.55
2023-01-26T21:59:20.542Z,36.13
2023-01-26T22:01:50.803Z,50.67
2023-01-26T22:04:22.278Z,63.53
2023-01-26T22:06:52.103Z,66.97
2023-01-26T22:09:21.369Z,49.08
2023-01-26T22:11:50.729Z,75.60
2023-01-26T22:14:20.940Z,53.85
2023-01-26T22:16:49.371Z,61.97
2023-01-26T22:19:19.096Z,68.93
2023-01-26T22:21:47.370Z,66.18
2023-01-26T22:24:18.042Z,43.67
2023-01-26T22:26:46.416Z,40.78
2023-01-26T22:29:14.646Z,35.65
2023-01-26T22:31:42.955Z,34.85
2023-01-26T22:34:12.031Z,31.23
2023-01-26T22:36:41.743Z,30.48
2023-01-26T22:39:12.207Z,27.27
2023-01-26T22:41:40.628Z,28.45
2023-01-26T22:44:09.228Z,27.80
2023-01-26T22:46:37.913Z,28.00
2023-01-26T22:49:06.429Z,27.23
2023-01-26T22:51:37.300Z,24.88
2023-01-26T22:54:07.300Z,23.52
2023-01-26T22:56:35.709Z,23.17
2023-01-26T22:59:04.343Z,23.05
2023-01-26T23:01:34.497Z,20.40
2023-01-26T23:04:03.128Z,21.70
2023-01-26T23:06:31.523Z,25.88
2023-01-26T23:09:01.248Z,20.77
2023-01-26T23:11:31.750Z,22.77
2023-01-26T23:14:01.158Z,23.85
2023-01-26T23:16:29.894Z,20.13
2023-01-26T23:18:59.893Z,19.40
2023-01-26T23:21:29.456Z,28.50
2023-01-26T23:23:57.809Z,30.80
2023-01-26T23:26:26.613Z,29.70
2023-01-26T23:28:56.263Z,24.73
2023-01-26T23:31:24.622Z,23.08
2023-01-26T23:33:53.032Z,23.95
2023-01-26T23:36:21.900Z,20.83
2023-01-26T23:38:50.287Z,24.98
2023-01-26T23:41:18.847Z,24.20
2023-01-26T23:43:47.349Z,21.80
2023-01-26T23:46:17.138Z,21.17
2023-01-26T23:48:45.524Z,19.75
2023-01-26T23:51:14.016Z,20.25
2023-01-26T23:53:42.276Z,24.13
2023-01-26T23:56:14.507Z,22.83
2023-01-26T23:58:42.939Z,19.57
